createdAt,value
2022-11-24T00:01:26.570Z,-10.17
2022-11-24T00:04:29.552Z,-10.31
2022-11-24T00:07:32.609Z,-10.33
2022-11-24T00:10:35.692Z,-10.30
2022-11-24T00:13:39.750Z,-10.20
2022-11-24T00:16:42.878Z,-10.14
2022-11-24T00:19:45.857Z,-10.10
2022-11-24T00:22:48.742Z,-10.08
2022-11-24T00:25:51.737Z,-10.05
2022-11-24T00:28:56.762Z,-10.11
2022-11-24T00:31:59.768Z,-10.15
2022-11-24T00:35:02.717Z,-10.05
2022-11-24T00:38:05.732Z,-9.92
2022-11-24T00:41:08.871Z,-9.74
2022-11-24T00:44:12.032Z,-9.58
2022-11-24T00:47:15.050Z,-9.44
2022-11-24T00:50:18.304Z,-9.36
2022-11-24T00:53:21.266Z,-9.54
2022-11-24T00:56:25.319Z,-9.65
2022-11-24T00:59:28.334Z,-9.57
2022-11-24T01:02:31.326Z,-9.49
2022-11-24T01:05:37.526Z,-9.55
2022-11-24T01:08:41.383Z,-9.46
2022-11-24T01:12:02.610Z,-9.34
2022-11-24T01:15:06.030Z,-9.21
2022-11-24T01:18:09.086Z,-9.11
2022-11-24T01:21:12.282Z,-9.09
2022-11-24T01:24:15.505Z,-9.01
2022-11-24T01:27:18.538Z,-8.88
2022-11-24T01:30:23.676Z,-8.82
2022-11-24T01:33:26.845Z,-8.75
2022-11-24T01:36:30.085Z,-8.63
2022-11-24T01:39:33.055Z,-8.57
2022-11-24T01:42:52.393Z,-8.57
2022-11-24T01:45:56.204Z,-8.72
2022-11-24T01:49:09.660Z,-8.80
2022-11-24T01:52:23.846Z,-8.74
2022-11-24T01:55:31.635Z,-8.58
2022-11-24T01:58:35.196Z,-8.56
2022-11-24T02:01:38.346Z,-8.55
2022-11-24T02:04:41.962Z,-8.58
2022-11-24T02:07:45.933Z,-8.58
2022-11-24T02:10:49.523Z,-8.60
2022-11-24T02:13:54.961Z,-8.41
2022-11-24T02:16:57.968Z,-8.26
2022-11-24T02:20:07.556Z,-8.32
2022-11-24T02:23:10.509Z,-8.43
2022-11-24T02:26:22.054Z,-8.57
2022-11-24T02:29:25.168Z,-8.56
2022-11-24T02:32:29.147Z,-8.50
2022-11-24T02:35:33.005Z,-8.44
2022-11-24T02:38:36.750Z,-8.32
2022-11-24T02:41:45.560Z,-8.17
2022-11-24T02:44:53.521Z,-7.99
2022-11-24T02:47:56.511Z,-7.95
2022-11-24T02:50:59.542Z,-7.87
2022-11-24T02:54:02.564Z,-7.80
2022-11-24T02:57:05.643Z,-7.83
2022-11-24T03:00:09.988Z,-7.71
2022-11-24T03:03:13.203Z,-7.60
2022-11-24T03:06:16.202Z,-7.52
2022-11-24T03:09:19.158Z,-7.33
2022-11-24T03:12:22.309Z,-7.07
2022-11-24T03:15:25.355Z,-6.90
2022-11-24T03:18:28.442Z,-7.18
2022-11-24T03:21:31.768Z,-7.27
2022-11-24T03:24:35.119Z,-7.13
2022-11-24T03:27:38.399Z,-6.92
2022-11-24T03:30:41.678Z,-6.75
2022-11-24T03:33:44.638Z,-6.64
2022-11-24T03:36:47.689Z,-6.47
2022-11-24T03:39:50.958Z,-6.41
2022-11-24T03:42:53.918Z,-6.31
2022-11-24T03:45:57.293Z,-6.20
2022-11-24T03:49:00.389Z,-6.20
2022-11-24T03:52:07.806Z,-6.12
2022-11-24T03:55:11.417Z,-6.07
2022-11-24T03:58:14.562Z,-6.13
2022-11-24T04:01:17.751Z,-6.15
2022-11-24T04:04:21.095Z,-6.17
2022-11-24T04:07:24.250Z,-6.12
2022-11-24T04:10:27.350Z,-6.10
2022-11-24T04:13:30.386Z,-6.07
2022-11-24T04:16:33.598Z,-6.00
2022-11-24T04:19:36.659Z,-5.97
2022-11-24T04:22:40.622Z,-5.84
2022-11-24T04:25:44.336Z,-5.74
2022-11-24T04:28:47.815Z,-5.65
2022-11-24T04:31:51.318Z,-5.59
2022-11-24T04:34:54.667Z,-5.55
2022-11-24T04:37:57.808Z,-5.49
2022-11-24T04:41:04.704Z,-5.39
2022-11-24T04:44:07.679Z,-5.36
2022-11-24T04:47:23.189Z,-5.36
2022-11-24T04:50:26.268Z,-5.38
2022-11-24T04:53:29.373Z,-5.41
2022-11-24T04:56:32.363Z,-5.41
2022-11-24T04:59:35.393Z,-5.39
2022-11-24T05:02:38.695Z,-5.33
2022-11-24T05:05:41.791Z,-5.29
2022-11-24T05:08:47.822Z,-5.28
2022-11-24T05:11:52.691Z,-5.29
2022-11-24T05:14:55.719Z,-5.33
2022-11-24T05:17:59.073Z,-5.38
2022-11-24T05:21:02.545Z,-5.38
2022-11-24T05:24:06.051Z,-5.37
2022-11-24T05:27:09.174Z,-5.44
2022-11-24T05:30:12.989Z,-5.52
2022-11-24T05:33:19.642Z,-5.55
2022-11-24T05:36:41.206Z,-5.52
2022-11-24T05:39:44.312Z,-5.42
2022-11-24T05:42:48.340Z,-5.33
2022-11-24T05:45:51.682Z,-5.21
2022-11-24T05:48:54.733Z,-5.17
2022-11-24T05:51:57.741Z,-5.15
2022-11-24T05:55:00.740Z,-5.07
2022-11-24T05:58:06.889Z,-5.14
2022-11-24T06:01:09.962Z,-5.32
2022-11-24T06:04:13.047Z,-5.50
2022-11-24T06:07:16.664Z,-5.58
2022-11-24T06:10:21.343Z,-5.64
2022-11-24T06:13:24.646Z,-5.67
2022-11-24T06:16:27.768Z,-5.70
2022-11-24T06:19:31.059Z,-5.67
2022-11-24T06:22:34.489Z,-5.63
2022-11-24T06:25:37.473Z,-5.75
2022-11-24T06:28:40.568Z,-5.80
2022-11-24T06:31:43.796Z,-5.85
2022-11-24T06:34:47.475Z,-5.90
2022-11-24T06:37:50.614Z,-5.97
2022-11-24T06:41:00.717Z,-6.03
2022-11-24T06:44:05.336Z,-6.01
2022-11-24T06:47:08.314Z,-6.07
2022-11-24T06:50:11.698Z,-6.04
2022-11-24T06:53:14.815Z,-6.10
2022-11-24T06:56:20.472Z,-6.11
2022-11-24T06:59:23.535Z,-6.16
2022-11-24T07:02:26.648Z,-6.23
2022-11-24T07:05:29.669Z,-6.28
2022-11-24T07:08:32.658Z,-6.32
2022-11-24T07:11:36.552Z,-6.35
2022-11-24T07:14:39.629Z,-6.41
2022-11-24T07:17:42.681Z,-6.49
2022-11-24T07:20:45.693Z,-6.58
2022-11-24T07:23:53.255Z,-6.64
2022-11-24T07:26:56.342Z,-6.73
2022-11-24T07:29:59.511Z,-6.80
2022-11-24T07:33:03.487Z,-6.86
2022-11-24T07:36:08.268Z,-6.92
2022-11-24T07:39:11.603Z,-7.01
2022-11-24T07:42:14.585Z,-7.10
2022-11-24T07:45:17.700Z,-7.15
2022-11-24T07:48:20.947Z,-7.19
2022-11-24T07:51:24.101Z,-7.30
2022-11-24T07:54:27.424Z,-7.39
2022-11-24T07:57:30.585Z,-7.42
2022-11-24T08:00:33.736Z,-7.46
2022-11-24T08:03:37.114Z,-7.51
2022-11-24T08:06:44.683Z,-7.62
2022-11-24T08:09:51.090Z,-7.74
2022-11-24T08:12:54.104Z,-7.84
2022-11-24T08:15:57.042Z,-7.91
2022-11-24T08:19:00.176Z,-8.00
2022-11-24T08:22:03.493Z,-8.06
2022-11-24T08:25:06.925Z,-8.12
2022-11-24T08:28:10.007Z,-8.18
2022-11-24T08:31:16.100Z,-8.23
2022-11-24T08:34:19.152Z,-8.35
2022-11-24T08:37:22.272Z,-8.41
2022-11-24T08:40:25.320Z,-8.48
2022-11-24T08:43:28.501Z,-8.55
2022-11-24T08:46:31.760Z,-8.61
2022-11-24T08:49:34.863Z,-8.63
2022-11-24T08:52:38.188Z,-8.64
2022-11-24T08:55:41.282Z,-8.71
2022-11-24T08:58:44.718Z,-8.78
2022-11-24T09:01:47.862Z,-8.87
2022-11-24T09:04:51.899Z,-8.89
2022-11-24T09:07:55.152Z,-8.64
2022-11-24T09:11:05.982Z,-8.64
2022-11-24T09:14:09.093Z,-8.76
2022-11-24T09:17:12.175Z,-8.89
2022-11-24T09:20:15.563Z,-8.95
2022-11-24T09:23:18.533Z,-9.02
2022-11-24T09:26:33.416Z,-9.04
2022-11-24T09:29:36.759Z,-9.09
2022-11-24T09:32:40.068Z,-9.14
2022-11-24T09:35:43.112Z,-9.16
2022-11-24T09:38:46.419Z,-9.15
2022-11-24T09:42:10.430Z,-9.17
2022-11-24T09:45:57.517Z,-9.15
2022-11-24T09:48:59.467Z,-9.21
2022-11-24T09:52:08.639Z,-9.21
2022-11-24T09:55:40.288Z,-9.24
2022-11-24T09:58:51.263Z,-9.29
2022-11-24T10:01:56.338Z,-9.28
2022-11-24T10:05:01.509Z,-9.36
2022-11-24T10:08:20.443Z,-9.35
2022-11-24T10:11:47.458Z,-9.34
2022-11-24T10:15:17.651Z,-9.42
2022-11-24T10:19:03.614Z,-9.44
2022-11-24T10:22:13.366Z,-9.45
2022-11-24T10:25:34.485Z,-9.51
2022-11-24T10:28:45.868Z,-9.59
2022-11-24T10:31:54.340Z,-9.61
2022-11-24T10:35:03.635Z,-9.67
2022-11-24T10:38:22.179Z,-9.73
2022-11-24T10:41:38.545Z,-9.78
2022-11-24T10:44:43.212Z,-9.82
2022-11-24T10:47:47.539Z,-9.80
2022-11-24T10:50:54.862Z,-9.79
2022-11-24T10:54:21.862Z,-9.82
2022-11-24T10:57:44.413Z,-9.87
2022-11-24T11:00:53.695Z,-9.94
2022-11-24T11:04:00.246Z,-9.99
2022-11-24T11:07:10.357Z,-10.02
2022-11-24T11:10:21.117Z,-10.05
2022-11-24T11:13:30.818Z,-10.10
2022-11-24T11:16:54.651Z,-10.11
2022-11-24T11:20:07.988Z,-10.14
2022-11-24T11:23:21.850Z,-10.13
2022-11-24T11:26:34.239Z,-10.16
2022-11-24T11:36:25.498Z,-10.17
2022-11-24T11:39:35.650Z,-10.20
2022-11-24T11:43:04.534Z,-10.23
2022-11-24T11:46:18.940Z,-10.21
2022-11-24T11:49:22.301Z,-10.21
2022-11-24T11:52:36.443Z,-10.26
2022-11-24T11:55:49.898Z,-10.30
2022-11-24T11:59:14.978Z,-10.30
2022-11-24T12:02:27.141Z,-10.28
2022-11-24T12:05:47.103Z,-10.25
2022-11-24T12:09:20.411Z,-10.23
2022-11-24T12:12:46.465Z,-10.22
2022-11-24T12:15:52.970Z,-10.23
2022-11-24T12:18:58.021Z,-10.27
2022-11-24T12:22:36.421Z,-10.26
2022-11-24T12:26:02.866Z,-10.24
2022-11-24T12:29:43.211Z,-10.24
2022-11-24T12:33:12.611Z,-10.26
2022-11-24T12:36:36.938Z,-10.25
2022-11-24T12:39:49.734Z,-10.22
2022-11-24T12:43:02.346Z,-10.18
2022-11-24T12:46:20.424Z,-10.14
2022-11-24T12:49:34.883Z,-10.10
2022-11-24T12:52:45.200Z,-10.06
2022-11-24T12:55:48.802Z,-10.07
2022-11-24T12:59:03.572Z,-10.04
2022-11-24T13:02:31.269Z,-10.02
2022-11-24T13:06:21.848Z,-10.01
2022-11-24T13:09:25.020Z,-9.93
2022-11-24T13:12:28.190Z,-9.87
2022-11-24T13:15:45.516Z,-9.85
2022-11-24T13:19:15.090Z,-9.78
2022-11-24T13:22:25.168Z,-9.75
2022-11-24T13:25:35.894Z,-9.73
2022-11-24T13:29:23.692Z,-9.75
2022-11-24T13:32:34.379Z,-9.80
2022-11-24T13:35:38.137Z,-9.82
2022-11-24T13:38:47.327Z,-9.87
2022-11-24T13:41:50.481Z,-9.95
2022-11-24T13:44:58.688Z,-10.01
2022-11-24T13:48:01.685Z,-10.10
2022-11-24T13:51:22.987Z,-10.16
2022-11-24T13:54:28.286Z,-10.22
2022-11-24T13:57:46.038Z,-10.22
2022-11-24T14:01:01.966Z,-10.23
2022-11-24T14:04:36.059Z,-10.23
2022-11-24T14:07:42.682Z,-10.25
2022-11-24T14:10:46.563Z,-10.27
2022-11-24T14:13:49.875Z,-10.26
2022-11-24T14:17:15.496Z,-10.30
2022-11-24T14:20:28.988Z,-10.31
2022-11-24T14:23:32.437Z,-10.34
2022-11-24T14:26:37.165Z,-10.36
2022-11-24T14:29:56.281Z,-10.37
2022-11-24T14:33:02.081Z,-10.40
2022-11-24T14:36:05.544Z,-10.44
2022-11-24T14:39:13.527Z,-10.45
2022-11-24T14:42:21.563Z,-10.49
2022-11-24T14:45:26.192Z,-10.51
2022-11-24T14:48:40.652Z,-10.52
2022-11-24T14:51:46.187Z,-10.53
2022-11-24T14:55:21.410Z,-10.57
2022-11-24T14:58:37.672Z,-10.55
2022-11-24T15:01:44.090Z,-10.55
2022-11-24T15:05:13.825Z,-10.54
2022-11-24T15:08:16.957Z,-10.57
2022-11-24T15:11:21.197Z,-10.60
2022-11-24T15:14:41.361Z,-10.60
2022-11-24T15:17:57.357Z,-10.61
2022-11-24T15:21:00.491Z,-10.65
2022-11-24T15:24:21.444Z,-10.64
2022-11-24T15:27:24.486Z,-10.66
2022-11-24T15:30:28.483Z,-10.69
2022-11-24T15:33:33.579Z,-10.72
2022-11-24T15:36:36.663Z,-10.73
2022-11-24T15:39:39.756Z,-10.76
2022-11-24T15:42:43.334Z,-10.76
2022-11-24T15:45:46.625Z,-10.77
2022-11-24T15:48:49.817Z,-10.79
2022-11-24T15:51:52.845Z,-10.79
2022-11-24T15:54:57.837Z,-10.77
2022-11-24T15:58:02.261Z,-10.78
2022-11-24T16:01:05.028Z,-10.80
2022-11-24T16:04:08.395Z,-10.84
2022-11-24T16:07:15.085Z,-10.85
2022-11-24T16:10:32.151Z,-10.86
2022-11-24T16:13:35.292Z,-10.86
2022-11-24T16:16:38.613Z,-10.85
2022-11-24T16:19:42.258Z,-10.85
2022-11-24T16:22:45.871Z,-10.87
2022-11-24T16:25:50.015Z,-10.87
2022-11-24T16:28:53.216Z,-10.87
2022-11-24T16:31:56.365Z,-10.86
2022-11-24T16:34:59.706Z,-10.88
2022-11-24T16:38:02.760Z,-10.93
2022-11-24T16:41:05.969Z,-10.89
2022-11-24T16:44:09.000Z,-10.91
2022-11-24T16:47:13.649Z,-10.94
2022-11-24T16:50:16.854Z,-10.94
2022-11-24T16:53:19.865Z,-10.90
2022-11-24T16:56:23.039Z,-10.89
2022-11-24T16:59:26.189Z,-10.87
2022-11-24T17:02:29.522Z,-10.86
2022-11-24T17:05:32.714Z,-10.88
2022-11-24T17:08:37.867Z,-10.94
2022-11-24T17:11:41.260Z,-10.98
2022-11-24T17:14:52.637Z,-11.02
2022-11-24T17:18:24.961Z,-11.06
2022-11-24T17:21:29.330Z,-11.05
2022-11-24T17:24:32.710Z,-11.01
2022-11-24T17:27:35.972Z,-11.02
2022-11-24T17:30:39.240Z,-11.06
2022-11-24T17:33:42.400Z,-11.08
2022-11-24T17:36:46.641Z,-11.13
2022-11-24T17:40:12.616Z,-11.15
2022-11-24T17:43:12.669Z,-11.15
2022-11-24T17:46:15.842Z,-11.17
2022-11-24T17:49:19.032Z,-11.19
2022-11-24T17:52:22.061Z,-11.19
2022-11-24T17:55:25.116Z,-11.20
2022-11-24T17:58:33.585Z,-11.20
2022-11-24T18:01:38.704Z,-11.24
2022-11-24T18:04:41.810Z,-11.29
2022-11-24T18:07:44.936Z,-11.33
2022-11-24T18:10:48.214Z,-11.40
2022-11-24T18:13:59.760Z,-11.44
2022-11-24T18:17:03.188Z,-11.46
2022-11-24T18:20:07.192Z,-11.49
2022-11-24T18:23:10.217Z,-11.52
2022-11-24T18:26:18.295Z,-11.62
2022-11-24T18:29:23.348Z,-11.67
2022-11-24T18:32:26.615Z,-11.71
2022-11-24T18:35:29.636Z,-11.74
2022-11-24T18:38:36.531Z,-11.75
2022-11-24T18:41:40.571Z,-11.81
2022-11-24T18:44:43.600Z,-11.87
2022-11-24T18:47:46.842Z,-11.99
2022-11-24T18:50:53.262Z,-12.09
2022-11-24T18:53:58.523Z,-12.18
2022-11-24T18:57:03.551Z,-12.20
2022-11-24T19:00:08.242Z,-12.18
2022-11-24T19:03:12.823Z,-12.20
2022-11-24T19:06:25.301Z,-12.24
2022-11-24T19:09:28.388Z,-12.32
2022-11-24T19:12:31.360Z,-12.33
2022-11-24T19:15:35.715Z,-12.30
2022-11-24T19:18:38.441Z,-12.32
2022-11-24T19:21:41.955Z,-12.43
2022-11-24T19:24:47.758Z,-12.56
2022-11-24T19:27:50.722Z,-12.67
2022-11-24T19:30:53.906Z,-12.69
2022-11-24T19:33:59.002Z,-12.68
2022-11-24T19:37:01.954Z,-12.60
2022-11-24T19:40:07.136Z,-12.48
2022-11-24T19:43:10.185Z,-12.29
2022-11-24T19:46:15.222Z,-12.14
2022-11-24T19:49:18.312Z,-12.04
2022-11-24T19:52:21.339Z,-12.01
2022-11-24T19:55:24.338Z,-11.97
2022-11-24T19:58:27.354Z,-11.92
2022-11-24T20:01:33.428Z,-11.86
2022-11-24T20:04:40.217Z,-11.85
2022-11-24T20:07:43.434Z,-11.88
2022-11-24T20:10:46.546Z,-11.89
2022-11-24T20:13:50.478Z,-11.92
2022-11-24T20:16:53.542Z,-11.94
2022-11-24T20:19:56.657Z,-11.87
2022-11-24T20:22:59.727Z,-11.81
2022-11-24T20:26:11.283Z,-11.76
2022-11-24T20:29:15.454Z,-11.70
2022-11-24T20:32:20.803Z,-11.69
2022-11-24T20:35:23.874Z,-11.67
2022-11-24T20:38:26.820Z,-11.63
2022-11-24T20:41:32.928Z,-11.59
2022-11-24T20:44:36.249Z,-11.52
2022-11-24T20:47:39.459Z,-11.44
2022-11-24T20:50:45.736Z,-11.39
2022-11-24T20:53:53.199Z,-11.32
2022-11-24T20:56:56.275Z,-11.25
2022-11-24T20:59:59.255Z,-11.23
2022-11-24T21:03:02.336Z,-11.21
2022-11-24T21:06:05.819Z,-11.19
2022-11-24T21:09:10.053Z,-11.17
2022-11-24T21:12:13.033Z,-11.16
2022-11-24T21:15:16.376Z,-11.16
2022-11-24T21:18:20.545Z,-11.14
2022-11-24T21:21:26.207Z,-11.13
2022-11-24T21:24:31.488Z,-11.13
2022-11-24T21:27:35.467Z,-11.11
2022-11-24T21:30:38.611Z,-11.12
2022-11-24T21:33:44.127Z,-11.10
2022-11-24T21:36:47.972Z,-11.09
2022-11-24T21:39:51.716Z,-11.08
2022-11-24T21:42:54.805Z,-11.07
2022-11-24T21:46:08.975Z,-11.04
2022-11-24T21:49:13.794Z,-11.06
2022-11-24T21:52:16.893Z,-11.06
2022-11-24T21:55:20.018Z,-11.08
2022-11-24T21:58:24.297Z,-11.09
2022-11-24T22:01:29.270Z,-11.10
2022-11-24T22:04:32.487Z,-11.07
2022-11-24T22:07:35.836Z,-11.07
2022-11-24T22:10:39.225Z,-11.09
2022-11-24T22:13:44.815Z,-11.10
2022-11-24T22:16:48.367Z,-11.12
2022-11-24T22:19:51.525Z,-11.12
2022-11-24T22:22:54.626Z,-11.14
2022-11-24T22:26:03.410Z,-11.13
2022-11-24T22:29:06.779Z,-11.15
2022-11-24T22:32:09.878Z,-11.13
2022-11-24T22:35:12.952Z,-11.15
2022-11-24T22:38:16.008Z,-11.12
2022-11-24T22:41:19.581Z,-11.11
2022-11-24T22:44:22.635Z,-11.09
2022-11-24T22:47:25.767Z,-11.06
2022-11-24T22:50:28.888Z,-11.03
2022-11-24T22:53:32.462Z,-11.00
2022-11-24T22:56:35.604Z,-10.96
2022-11-24T22:59:38.672Z,-10.91
2022-11-24T23:02:41.922Z,-10.89
2022-11-24T23:05:45.060Z,-10.88
2022-11-24T23:08:48.864Z,-10.83
2022-11-24T23:11:51.941Z,-10.81
2022-11-24T23:14:55.221Z,-10.83
2022-11-24T23:17:58.256Z,-10.80
2022-11-24T23:21:21.290Z,-10.77
2022-11-24T23:24:24.216Z,-10.79
2022-11-24T23:27:27.134Z,-10.76
2022-11-24T23:30:30.122Z,-10.75
2022-11-24T23:33:33.613Z,-10.71
2022-11-24T23:36:36.570Z,-10.70
2022-11-24T23:39:39.520Z,-10.68
2022-11-24T23:42:42.730Z,-10.65
2022-11-24T23:45:45.763Z,-10.64
2022-11-24T23:48:50.033Z,-10.58
2022-11-24T23:51:53.031Z,-10.65
2022-11-24T23:54:56.263Z,-10.79
2022-11-24T23:57:59.365Z,-10.78
